createdAt,value
2022-10-07T00:00:46.658Z,8.90
2022-10-07T00:01:49.402Z,8.90
2022-10-07T00:02:51.365Z,8.90
2022-10-07T00:03:53.561Z,8.90
2022-10-07T00:04:55.292Z,8.90
2022-10-07T00:06:05.371Z,8.90
2022-10-07T00:07:07.135Z,8.90
2022-10-07T00:08:09.200Z,8.90
2022-10-07T00:09:11.019Z,8.90
2022-10-07T00:10:12.846Z,8.90
2022-10-07T00:11:24.496Z,8.90
2022-10-07T00:12:26.462Z,8.90
2022-10-07T00:13:28.567Z,8.80
2022-10-07T00:14:30.314Z,8.80
2022-10-07T00:15:32.162Z,8.80
2022-10-07T00:16:39.669Z,8.80
2022-10-07T00:17:41.800Z,8.70
2022-10-07T00:18:44.565Z,8.70
2022-10-07T00:19:46.398Z,8.70
2022-10-07T00:20:48.143Z,8.70
2022-10-07T00:21:49.893Z,8.70
2022-10-07T00:22:53.534Z,8.70
2022-10-07T00:23:55.491Z,8.70
2022-10-07T00:24:57.260Z,8.70
2022-10-07T00:26:03.651Z,8.60
2022-10-07T00:27:05.425Z,8.60
2022-10-07T00:28:07.337Z,8.60
2022-10-07T00:29:09.763Z,8.60
2022-10-07T00:30:12.219Z,8.60
2022-10-07T00:31:16.548Z,8.60
2022-10-07T00:32:18.392Z,8.60
2022-10-07T00:33:20.162Z,8.60
2022-10-07T00:34:21.962Z,8.60
2022-10-07T00:35:23.634Z,8.60
2022-10-07T00:36:31.187Z,8.60
2022-10-07T00:37:32.898Z,8.60
2022-10-07T00:38:34.709Z,8.60
2022-10-07T00:39:36.316Z,8.50
2022-10-07T00:40:37.928Z,8.50
2022-10-07T00:41:42.493Z,8.60
2022-10-07T00:42:44.361Z,8.50
2022-10-07T00:43:46.895Z,8.50
2022-10-07T00:44:48.682Z,8.60
2022-10-07T00:45:51.816Z,8.50
2022-10-07T00:46:55.647Z,8.70
2022-10-07T00:47:57.277Z,8.40
2022-10-07T00:49:02.946Z,8.40
2022-10-07T00:50:11.485Z,8.30
2022-10-07T00:51:17.032Z,8.40
2022-10-07T00:52:21.320Z,8.40
2022-10-07T00:53:27.714Z,8.30
2022-10-07T00:54:29.351Z,8.30
2022-10-07T00:55:32.296Z,8.30
2022-10-07T00:56:34.917Z,8.20
2022-10-07T00:57:38.375Z,8.20
2022-10-07T00:58:42.832Z,8.20
2022-10-07T00:59:44.968Z,8.20
2022-10-07T01:00:47.095Z,8.20
2022-10-07T01:01:48.732Z,8.20
2022-10-07T01:02:51.571Z,8.30
2022-10-07T01:03:54.193Z,8.20
2022-10-07T01:04:58.959Z,8.20
2022-10-07T01:06:00.543Z,8.20
2022-10-07T01:07:02.396Z,8.20
2022-10-07T01:08:04.088Z,8.20
2022-10-07T01:09:07.222Z,8.20
2022-10-07T01:10:11.619Z,8.20
2022-10-07T01:11:40.425Z,8.20
2022-10-07T01:13:18.525Z,8.10
2022-10-07T01:14:31.301Z,8.10
2022-10-07T01:15:41.732Z,8.10
2022-10-07T01:17:10.369Z,8.10
2022-10-07T01:18:31.382Z,8.10
2022-10-07T01:20:15.349Z,8.10
2022-10-07T01:21:48.990Z,8.00
2022-10-07T01:23:20.214Z,8.00
2022-10-07T01:24:32.049Z,8.00
2022-10-07T01:25:52.353Z,7.90
2022-10-07T01:27:02.292Z,7.90
2022-10-07T01:28:12.102Z,7.90
2022-10-07T01:29:22.702Z,7.90
2022-10-07T01:30:24.729Z,7.90
2022-10-07T01:31:38.256Z,7.90
2022-10-07T01:32:54.626Z,7.90
2022-10-07T01:33:56.618Z,8.00
2022-10-07T01:34:59.833Z,7.90
2022-10-07T01:36:08.245Z,7.90
2022-10-07T01:37:15.131Z,7.90
2022-10-07T01:38:19.977Z,7.90
2022-10-07T01:39:28.936Z,7.80
2022-10-07T01:40:43.953Z,7.80
2022-10-07T01:41:46.029Z,7.80
2022-10-07T01:42:49.013Z,7.90
2022-10-07T01:43:53.833Z,7.80
2022-10-07T01:44:58.642Z,7.90
2022-10-07T01:46:01.677Z,7.90
2022-10-07T01:47:03.428Z,7.90
2022-10-07T01:48:05.096Z,7.80
2022-10-07T01:49:07.131Z,7.80
2022-10-07T01:50:21.918Z,7.80
2022-10-07T01:51:28.183Z,7.80
2022-10-07T01:52:54.014Z,7.70
2022-10-07T01:54:24.969Z,7.70
2022-10-07T01:55:46.879Z,7.70
2022-10-07T01:57:00.601Z,7.70
2022-10-07T01:58:37.036Z,7.70
2022-10-07T01:59:38.876Z,7.70
2022-10-07T02:00:49.241Z,7.70
2022-10-07T02:02:06.727Z,7.70
2022-10-07T02:03:38.009Z,7.70
2022-10-07T02:04:59.048Z,7.70
2022-10-07T02:06:32.771Z,7.70
2022-10-07T02:07:43.804Z,7.70
2022-10-07T02:08:48.925Z,7.70
2022-10-07T02:09:53.555Z,7.60
2022-10-07T02:11:16.542Z,7.50
2022-10-07T02:12:26.013Z,7.50
2022-10-07T02:13:45.433Z,7.60
2022-10-07T02:14:59.112Z,7.60
2022-10-07T02:16:10.634Z,7.60
2022-10-07T02:17:20.563Z,7.60
2022-10-07T02:18:22.738Z,7.60
2022-10-07T02:19:34.761Z,7.60
2022-10-07T02:20:38.742Z,7.50
2022-10-07T02:21:42.985Z,7.60
2022-10-07T02:22:46.540Z,7.60
2022-10-07T02:23:49.426Z,7.60
2022-10-07T02:24:55.364Z,7.60
2022-10-07T02:25:57.162Z,7.60
2022-10-07T02:27:05.216Z,7.60
2022-10-07T02:28:08.463Z,7.60
2022-10-07T02:29:12.385Z,7.60
2022-10-07T02:30:17.015Z,7.50
2022-10-07T02:31:23.944Z,7.40
2022-10-07T02:32:28.914Z,7.50
2022-10-07T02:33:32.184Z,7.50
2022-10-07T02:34:35.888Z,7.50
2022-10-07T02:35:45.123Z,7.50
2022-10-07T02:36:52.770Z,7.50
2022-10-07T02:37:57.990Z,7.50
2022-10-07T02:39:01.338Z,7.40
2022-10-07T02:40:07.086Z,7.30
2022-10-07T02:41:32.449Z,7.30
2022-10-07T02:42:42.646Z,7.30
2022-10-07T02:43:48.795Z,7.30
2022-10-07T02:44:56.425Z,7.30
2022-10-07T02:46:05.958Z,7.30
2022-10-07T02:47:16.539Z,7.30
2022-10-07T02:48:44.292Z,7.30
2022-10-07T02:49:53.074Z,7.20
2022-10-07T02:51:00.181Z,7.20
2022-10-07T02:52:08.519Z,7.20
2022-10-07T02:53:13.071Z,7.30
2022-10-07T02:54:19.192Z,7.30
2022-10-07T02:55:24.594Z,7.30
2022-10-07T02:56:27.325Z,7.30
2022-10-07T02:57:34.737Z,7.30
2022-10-07T02:58:37.078Z,7.40
2022-10-07T02:59:40.055Z,7.40
2022-10-07T03:00:47.397Z,7.30
2022-10-07T03:01:52.276Z,7.30
2022-10-07T03:02:57.313Z,7.30
2022-10-07T03:03:59.317Z,7.30
2022-10-07T03:05:00.962Z,7.20
2022-10-07T03:06:04.083Z,7.20
2022-10-07T03:07:05.839Z,7.10
2022-10-07T03:08:11.545Z,7.10
2022-10-07T03:09:13.415Z,7.10
2022-10-07T03:10:15.757Z,7.20
2022-10-07T03:11:17.342Z,7.20
2022-10-07T03:12:19.723Z,7.20
2022-10-07T03:13:21.404Z,7.20
2022-10-07T03:14:24.665Z,7.20
2022-10-07T03:15:27.386Z,7.20
2022-10-07T03:16:29.016Z,7.10
2022-10-07T03:17:30.648Z,7.10
2022-10-07T03:18:32.840Z,7.10
2022-10-07T03:19:34.418Z,7.00
2022-10-07T03:20:36.181Z,7.00
2022-10-07T03:21:37.965Z,7.00
2022-10-07T03:22:39.608Z,7.00
2022-10-07T03:23:41.248Z,7.10
2022-10-07T03:24:42.824Z,7.00
2022-10-07T03:25:49.159Z,7.00
2022-10-07T03:26:50.754Z,7.00
2022-10-07T03:27:54.197Z,7.00
2022-10-07T03:28:55.796Z,7.00
2022-10-07T03:29:58.523Z,7.00
2022-10-07T03:31:11.659Z,7.10
2022-10-07T03:32:13.423Z,7.10
2022-10-07T03:33:20.349Z,7.10
2022-10-07T03:34:23.100Z,7.10
2022-10-07T03:35:24.754Z,7.10
2022-10-07T03:36:26.341Z,7.10
2022-10-07T03:37:29.943Z,7.10
2022-10-07T03:38:32.387Z,7.10
2022-10-07T03:39:33.974Z,7.00
2022-10-07T03:40:35.890Z,7.00
2022-10-07T03:41:37.475Z,6.90
2022-10-07T03:42:39.158Z,6.90
2022-10-07T03:43:41.002Z,6.80
2022-10-07T03:44:42.770Z,6.80
2022-10-07T03:45:45.908Z,6.80
2022-10-07T03:46:51.869Z,6.80
2022-10-07T03:47:53.632Z,6.80
2022-10-07T03:48:55.624Z,6.80
2022-10-07T03:49:57.785Z,6.80
2022-10-07T03:50:59.810Z,6.70
2022-10-07T03:52:02.893Z,6.70
2022-10-07T03:53:05.025Z,6.70
2022-10-07T03:54:07.261Z,6.80
2022-10-07T03:55:09.129Z,6.80
2022-10-07T03:56:10.835Z,6.90
2022-10-07T03:57:31.246Z,6.90
2022-10-07T03:58:33.361Z,6.90
2022-10-07T03:59:35.002Z,6.90
2022-10-07T04:00:38.809Z,6.90
2022-10-07T04:01:40.492Z,6.90
2022-10-07T04:02:42.673Z,6.80
2022-10-07T04:03:44.335Z,6.80
2022-10-07T04:04:46.495Z,6.80
2022-10-07T04:06:00.627Z,6.80
2022-10-07T04:07:02.207Z,6.80
2022-10-07T04:08:07.495Z,6.80
2022-10-07T04:09:09.612Z,6.80
2022-10-07T04:10:14.362Z,6.90
2022-10-07T04:11:17.794Z,6.90
2022-10-07T04:12:19.492Z,6.90
2022-10-07T04:13:21.248Z,6.90
2022-10-07T04:14:22.834Z,6.90
2022-10-07T04:15:24.505Z,6.90
2022-10-07T04:16:27.111Z,6.90
2022-10-07T04:17:29.058Z,6.90
2022-10-07T04:18:30.652Z,7.00
2022-10-07T04:19:32.253Z,7.00
2022-10-07T04:20:33.843Z,6.90
2022-10-07T04:21:35.545Z,6.90
2022-10-07T04:22:37.916Z,6.90
2022-10-07T04:23:42.213Z,6.90
2022-10-07T04:24:43.835Z,6.80
2022-10-07T04:25:47.209Z,6.80
2022-10-07T04:26:49.891Z,6.80
2022-10-07T04:27:56.137Z,6.80
2022-10-07T04:29:00.027Z,6.80
2022-10-07T04:30:01.728Z,6.80
2022-10-07T04:31:05.616Z,6.70
2022-10-07T04:32:07.930Z,6.70
2022-10-07T04:33:10.730Z,6.70
2022-10-07T04:34:12.412Z,6.70
2022-10-07T04:35:14.062Z,6.70
2022-10-07T04:36:16.501Z,6.70
2022-10-07T04:37:19.011Z,6.80
2022-10-07T04:38:22.453Z,6.80
2022-10-07T04:39:42.841Z,6.70
2022-10-07T04:40:50.263Z,6.80
2022-10-07T04:41:51.961Z,6.70
2022-10-07T04:43:12.289Z,6.70
2022-10-07T04:44:13.883Z,6.70
2022-10-07T04:45:15.577Z,6.80
2022-10-07T04:46:17.301Z,6.70
2022-10-07T04:47:18.994Z,6.70
2022-10-07T04:48:23.716Z,6.60
2022-10-07T04:49:25.511Z,6.60
2022-10-07T04:50:27.361Z,6.60
2022-10-07T04:51:31.089Z,6.50
2022-10-07T04:52:32.972Z,6.50
2022-10-07T04:53:37.235Z,6.50
2022-10-07T04:54:39.367Z,6.50
2022-10-07T04:55:47.186Z,6.50
2022-10-07T04:56:49.765Z,6.50
2022-10-07T04:57:51.463Z,6.50
2022-10-07T04:58:53.070Z,6.50
2022-10-07T04:59:54.645Z,6.50
2022-10-07T05:00:57.705Z,6.60
2022-10-07T05:01:59.380Z,6.60
2022-10-07T05:03:01.320Z,6.60
2022-10-07T05:04:02.996Z,6.50
2022-10-07T05:05:04.951Z,6.50
2022-10-07T05:06:07.387Z,6.60
2022-10-07T05:07:10.433Z,6.50
2022-10-07T05:08:13.798Z,6.50
2022-10-07T05:09:15.379Z,6.50
2022-10-07T05:10:17.961Z,6.50
2022-10-07T05:11:19.727Z,6.50
2022-10-07T05:12:21.322Z,6.50
2022-10-07T05:13:24.291Z,6.50
2022-10-07T05:14:25.919Z,6.50
2022-10-07T05:15:27.691Z,6.50
2022-10-07T05:16:29.386Z,6.50
2022-10-07T05:17:31.075Z,6.50
2022-10-07T05:18:34.203Z,6.50
2022-10-07T05:19:35.851Z,6.50
2022-10-07T05:20:39.629Z,6.50
2022-10-07T05:21:42.010Z,6.50
2022-10-07T05:22:43.605Z,6.50
2022-10-07T05:23:45.428Z,6.50
2022-10-07T05:24:47.076Z,6.50
2022-10-07T05:26:01.826Z,6.50
2022-10-07T05:27:03.484Z,6.50
2022-10-07T05:28:05.705Z,6.50
2022-10-07T05:29:07.343Z,6.50
2022-10-07T05:30:09.831Z,6.50
2022-10-07T05:31:15.409Z,6.50
2022-10-07T05:32:17.247Z,6.50
2022-10-07T05:33:18.821Z,6.50
2022-10-07T05:34:20.424Z,6.50
2022-10-07T05:35:22.249Z,6.50
2022-10-07T05:36:23.935Z,6.50
2022-10-07T05:37:25.599Z,6.50
2022-10-07T05:38:28.618Z,6.50
2022-10-07T05:39:30.371Z,6.50
2022-10-07T05:40:31.942Z,6.50
2022-10-07T05:41:38.430Z,6.50
2022-10-07T05:42:46.533Z,6.50
2022-10-07T05:43:48.224Z,6.50
2022-10-07T05:44:49.868Z,6.50
2022-10-07T05:46:03.472Z,6.50
2022-10-07T05:47:05.255Z,6.50
2022-10-07T05:48:06.815Z,6.50
2022-10-07T05:49:08.527Z,6.50
2022-10-07T05:50:10.771Z,6.50
2022-10-07T05:51:14.062Z,6.50
2022-10-07T05:52:15.654Z,6.40
2022-10-07T05:53:17.284Z,6.40
2022-10-07T05:54:18.879Z,6.50
2022-10-07T05:55:20.658Z,6.50
2022-10-07T05:56:22.799Z,6.50
2022-10-07T05:57:24.763Z,6.50
2022-10-07T05:58:27.625Z,6.50
2022-10-07T05:59:30.057Z,6.50
2022-10-07T06:00:32.218Z,6.50
2022-10-07T06:01:33.880Z,6.50
2022-10-07T06:02:36.262Z,6.50
2022-10-07T06:03:39.119Z,6.50
2022-10-07T06:04:43.118Z,6.50
2022-10-07T06:05:46.073Z,6.50
2022-10-07T06:06:47.667Z,6.40
2022-10-07T06:07:49.308Z,6.40
2022-10-07T06:08:51.717Z,6.40
2022-10-07T06:10:11.887Z,6.30
2022-10-07T06:11:33.782Z,6.30
2022-10-07T06:12:55.596Z,6.30
2022-10-07T06:13:57.615Z,6.30
2022-10-07T06:14:59.335Z,6.30
2022-10-07T06:16:02.318Z,6.30
2022-10-07T06:17:04.713Z,6.30
2022-10-07T06:18:06.454Z,6.30
2022-10-07T06:19:22.272Z,6.30
2022-10-07T06:20:23.857Z,6.30
2022-10-07T06:21:29.310Z,6.30
2022-10-07T06:22:30.921Z,6.30
2022-10-07T06:23:33.571Z,6.30
2022-10-07T06:24:35.243Z,6.40
2022-10-07T06:25:36.879Z,6.40
2022-10-07T06:26:38.461Z,6.50
2022-10-07T06:27:40.136Z,6.50
2022-10-07T06:28:42.201Z,6.50
2022-10-07T06:29:43.830Z,6.50
2022-10-07T06:30:45.494Z,6.50
2022-10-07T06:31:47.158Z,6.50
2022-10-07T06:32:48.843Z,6.50
2022-10-07T06:33:50.990Z,6.50
2022-10-07T06:34:52.574Z,6.50
2022-10-07T06:35:59.796Z,6.50
2022-10-07T06:37:03.852Z,6.50
2022-10-07T06:38:05.983Z,6.50
2022-10-07T06:39:07.726Z,6.50
2022-10-07T06:40:09.871Z,6.50
2022-10-07T06:41:11.464Z,6.50
2022-10-07T06:42:13.170Z,6.50
2022-10-07T06:43:14.764Z,6.50
2022-10-07T06:44:16.333Z,6.60
2022-10-07T06:45:17.974Z,6.80
2022-10-07T06:46:20.380Z,7.00
2022-10-07T06:47:22.080Z,7.30
2022-10-07T06:48:23.668Z,7.70
2022-10-07T06:49:25.267Z,8.10
2022-10-07T06:50:26.895Z,8.50
2022-10-07T06:51:28.673Z,8.80
2022-10-07T06:52:30.353Z,9.20
2022-10-07T06:53:32.594Z,9.60
2022-10-07T06:54:34.548Z,9.80
2022-10-07T06:55:37.686Z,10.10
2022-10-07T06:56:39.385Z,10.50
2022-10-07T06:57:45.590Z,11.00
2022-10-07T06:58:50.077Z,11.20
2022-10-07T06:59:51.708Z,11.50
2022-10-07T07:00:54.305Z,11.70
2022-10-07T07:01:56.026Z,11.80
2022-10-07T07:03:01.337Z,12.00
2022-10-07T07:04:03.886Z,12.30
2022-10-07T07:05:08.386Z,12.50
2022-10-07T07:06:11.102Z,12.60
2022-10-07T07:07:12.787Z,12.80
2022-10-07T07:08:16.667Z,12.80
2022-10-07T07:09:18.366Z,12.70
2022-10-07T07:10:19.976Z,12.70
2022-10-07T07:11:37.025Z,12.70
2022-10-07T07:12:39.058Z,12.70
2022-10-07T07:13:43.819Z,12.30
2022-10-07T07:14:47.583Z,11.90
2022-10-07T07:15:59.939Z,11.50
2022-10-07T07:17:01.620Z,11.20
2022-10-07T07:18:05.066Z,10.90
2022-10-07T07:19:08.765Z,10.70
2022-10-07T07:20:10.922Z,10.20
2022-10-07T07:21:12.528Z,9.90
2022-10-07T07:22:14.139Z,9.60
2022-10-07T07:23:15.752Z,9.40
2022-10-07T07:24:17.508Z,9.30
2022-10-07T07:25:20.534Z,9.20
2022-10-07T07:26:22.190Z,9.00
2022-10-07T07:27:23.826Z,8.80
2022-10-07T07:28:25.498Z,8.70
2022-10-07T07:29:27.424Z,8.60
2022-10-07T07:30:30.545Z,8.60
2022-10-07T07:31:34.484Z,8.70
2022-10-07T07:32:36.063Z,8.60
2022-10-07T07:33:38.304Z,8.60
2022-10-07T07:34:40.005Z,8.50
2022-10-07T07:35:43.455Z,8.50
2022-10-07T07:36:48.196Z,8.50
2022-10-07T07:37:50.379Z,8.50
2022-10-07T07:39:08.466Z,8.50
2022-10-07T07:40:10.234Z,8.50
2022-10-07T07:41:11.908Z,8.50
2022-10-07T07:42:13.779Z,8.40
2022-10-07T07:43:15.419Z,8.40
2022-10-07T07:44:18.763Z,8.40
2022-10-07T07:45:20.657Z,8.40
2022-10-07T07:46:24.787Z,8.40
2022-10-07T07:47:27.682Z,8.40
2022-10-07T07:48:30.486Z,8.50
2022-10-07T07:49:33.896Z,8.50
2022-10-07T07:50:35.484Z,8.50
2022-10-07T07:51:37.655Z,8.50
2022-10-07T07:52:39.294Z,8.60
2022-10-07T07:53:40.927Z,8.70
2022-10-07T07:54:42.647Z,8.70
2022-10-07T07:55:55.741Z,8.80
2022-10-07T07:56:58.107Z,8.90
2022-10-07T07:57:59.765Z,8.90
2022-10-07T07:59:02.330Z,9.00
2022-10-07T08:00:05.752Z,9.00
2022-10-07T08:01:10.374Z,9.10
2022-10-07T08:02:12.574Z,9.10
2022-10-07T08:03:14.246Z,9.10
2022-10-07T08:04:16.876Z,9.30
2022-10-07T08:05:23.689Z,9.40
2022-10-07T08:06:27.857Z,9.50
2022-10-07T08:07:29.528Z,9.50
2022-10-07T08:08:31.661Z,9.60
2022-10-07T08:09:33.309Z,9.60
2022-10-07T08:10:35.025Z,9.70
2022-10-07T08:11:36.664Z,9.80
2022-10-07T08:12:38.505Z,9.70
2022-10-07T08:13:41.266Z,9.80
2022-10-07T08:14:43.263Z,9.80
2022-10-07T08:15:44.934Z,9.90
2022-10-07T08:16:47.271Z,9.90
2022-10-07T08:17:50.099Z,10.00
2022-10-07T08:18:52.413Z,10.00
2022-10-07T08:19:55.223Z,10.10
2022-10-07T08:21:07.642Z,10.10
2022-10-07T08:22:09.443Z,10.10
2022-10-07T08:23:11.080Z,10.20
2022-10-07T08:24:13.924Z,10.20
2022-10-07T08:25:16.747Z,10.30
2022-10-07T08:26:18.442Z,10.40
2022-10-07T08:27:20.418Z,10.50
2022-10-07T08:28:22.495Z,10.50
2022-10-07T08:29:24.534Z,10.50
2022-10-07T08:30:26.155Z,10.60
2022-10-07T08:31:29.447Z,10.60
2022-10-07T08:32:31.277Z,10.70
2022-10-07T08:33:35.707Z,10.70
2022-10-07T08:34:37.315Z,10.70
2022-10-07T08:35:38.907Z,10.80
2022-10-07T08:36:41.028Z,10.90
2022-10-07T08:37:42.802Z,10.80
2022-10-07T08:38:49.150Z,11.00
2022-10-07T08:39:50.768Z,11.10
2022-10-07T08:40:53.495Z,11.10
2022-10-07T08:41:58.061Z,11.20
2022-10-07T08:43:00.159Z,11.10
2022-10-07T08:44:16.744Z,11.20
2022-10-07T08:45:29.300Z,11.30
2022-10-07T08:46:34.627Z,11.30
2022-10-07T08:47:43.866Z,11.40
2022-10-07T08:48:55.028Z,11.50
2022-10-07T08:50:18.947Z,11.60
2022-10-07T08:51:26.317Z,11.60
2022-10-07T08:52:37.003Z,11.80
2022-10-07T08:53:38.786Z,11.80
2022-10-07T08:54:40.424Z,11.80
2022-10-07T08:56:14.450Z,11.80
2022-10-07T08:57:28.029Z,11.80
2022-10-07T08:58:57.856Z,11.70
2022-10-07T09:00:05.512Z,11.80
2022-10-07T09:01:22.621Z,11.90
2022-10-07T09:02:49.108Z,11.90
2022-10-07T09:03:56.586Z,12.10
2022-10-07T09:05:22.283Z,12.10
2022-10-07T09:06:31.324Z,12.30
2022-10-07T09:07:48.012Z,12.40
2022-10-07T09:08:57.684Z,12.60
2022-10-07T09:10:05.656Z,12.60
2022-10-07T09:11:16.180Z,12.70
2022-10-07T09:12:22.933Z,12.90
2022-10-07T09:13:29.409Z,13.40
2022-10-07T09:14:39.336Z,14.10
2022-10-07T09:15:46.199Z,15.30
2022-10-07T09:16:49.195Z,16.60
2022-10-07T09:18:05.354Z,17.70
2022-10-07T09:19:15.860Z,18.80
2022-10-07T09:20:19.833Z,19.50
2022-10-07T09:21:27.086Z,20.10
2022-10-07T09:22:32.396Z,20.90
2022-10-07T09:23:36.006Z,21.60
2022-10-07T09:24:37.627Z,22.30
2022-10-07T09:25:41.358Z,22.30
2022-10-07T09:26:43.682Z,23.30
2022-10-07T09:27:45.568Z,23.60
2022-10-07T09:28:47.533Z,24.10
2022-10-07T09:29:51.184Z,24.50
2022-10-07T09:30:52.929Z,24.70
2022-10-07T09:31:56.340Z,24.80
2022-10-07T09:32:58.219Z,24.90
2022-10-07T09:33:59.867Z,24.90
2022-10-07T09:35:05.900Z,25.10
2022-10-07T09:36:12.995Z,25.30
2022-10-07T09:37:22.306Z,25.50
2022-10-07T09:38:37.461Z,25.80
2022-10-07T09:39:39.945Z,25.80
2022-10-07T09:41:02.581Z,25.90
2022-10-07T09:42:07.858Z,26.20
2022-10-07T09:43:14.007Z,26.30
2022-10-07T09:44:15.750Z,26.50
2022-10-07T09:45:31.368Z,26.60
2022-10-07T09:46:47.524Z,26.30
2022-10-07T09:48:07.507Z,26.00
2022-10-07T09:49:27.378Z,26.00
2022-10-07T09:50:34.081Z,26.30
2022-10-07T09:51:35.709Z,26.50
2022-10-07T09:52:37.358Z,26.40
2022-10-07T09:54:04.278Z,26.30
2022-10-07T09:55:37.351Z,26.00
2022-10-07T09:56:42.784Z,25.30
2022-10-07T09:57:59.915Z,25.10
2022-10-07T09:59:23.329Z,25.20
2022-10-07T10:00:27.057Z,25.50
2022-10-07T10:01:28.758Z,25.30
2022-10-07T10:02:31.436Z,24.90
2022-10-07T10:03:35.537Z,24.70
2022-10-07T10:04:39.710Z,24.50
2022-10-07T10:05:52.545Z,24.30
2022-10-07T10:06:56.466Z,24.60
2022-10-07T10:08:19.163Z,24.80
2022-10-07T10:09:25.791Z,24.50
2022-10-07T10:10:33.700Z,24.70
2022-10-07T10:11:35.353Z,24.90
2022-10-07T10:12:49.214Z,25.10
2022-10-07T10:13:52.178Z,25.20
2022-10-07T10:14:55.962Z,25.50
2022-10-07T10:15:58.420Z,25.30
2022-10-07T10:17:00.095Z,25.30
2022-10-07T10:18:02.762Z,25.10
2022-10-07T10:19:21.771Z,25.10
2022-10-07T10:20:32.692Z,25.40
2022-10-07T10:21:41.565Z,25.70
2022-10-07T10:22:43.567Z,25.70
2022-10-07T10:23:48.411Z,25.50
2022-10-07T10:25:08.458Z,25.50
2022-10-07T10:26:37.584Z,25.70
2022-10-07T10:27:47.817Z,25.90
2022-10-07T10:29:20.045Z,25.60
2022-10-07T10:30:23.285Z,25.30
2022-10-07T10:31:44.768Z,25.40
2022-10-07T10:33:27.183Z,25.70
2022-10-07T10:34:54.279Z,25.70
2022-10-07T10:36:12.836Z,25.80
2022-10-07T10:37:18.421Z,25.80
2022-10-07T10:38:38.454Z,25.90
2022-10-07T10:40:13.457Z,25.10
2022-10-07T10:41:37.974Z,24.80
2022-10-07T10:43:10.208Z,24.90
2022-10-07T10:44:32.641Z,25.10
2022-10-07T10:46:02.074Z,24.40
2022-10-07T10:47:17.204Z,24.00
2022-10-07T10:48:29.314Z,24.20
2022-10-07T10:49:46.180Z,24.00
2022-10-07T10:50:55.949Z,24.00
2022-10-07T10:52:28.317Z,24.00
2022-10-07T10:53:49.445Z,23.80
2022-10-07T10:55:00.244Z,23.80
2022-10-07T10:56:15.213Z,23.80
2022-10-07T10:58:00.728Z,23.60
2022-10-07T10:59:13.747Z,23.30
2022-10-07T11:00:18.792Z,23.00
2022-10-07T11:01:36.316Z,23.00
2022-10-07T11:02:37.999Z,22.90
2022-10-07T11:04:00.597Z,22.80
2022-10-07T11:05:21.940Z,22.60
2022-10-07T11:06:26.627Z,22.60
2022-10-07T11:07:33.991Z,22.50
2022-10-07T11:08:38.604Z,22.40
2022-10-07T11:09:45.633Z,22.10
2022-10-07T11:10:53.713Z,21.40
2022-10-07T11:11:55.538Z,20.80
2022-10-07T11:13:15.678Z,20.30
2022-10-07T11:14:20.924Z,20.30
2022-10-07T11:15:25.500Z,20.50
2022-10-07T11:16:30.863Z,20.40
2022-10-07T11:17:37.531Z,20.30
2022-10-07T11:18:49.971Z,20.10
2022-10-07T11:20:25.162Z,19.90
2022-10-07T11:21:41.964Z,19.90
2022-10-07T11:22:50.596Z,20.10
2022-10-07T11:24:02.043Z,20.30
2022-10-07T11:25:15.801Z,20.50
2022-10-07T11:26:26.756Z,20.60
2022-10-07T11:27:33.548Z,20.70
2022-10-07T11:28:39.765Z,20.80
2022-10-07T11:29:53.584Z,20.90
2022-10-07T11:31:02.879Z,20.70
2022-10-07T11:32:42.685Z,20.60
2022-10-07T11:33:52.687Z,20.80
2022-10-07T11:35:17.194Z,20.70
2022-10-07T11:36:24.705Z,20.80
2022-10-07T11:37:29.014Z,21.10
2022-10-07T11:38:36.386Z,21.10
2022-10-07T11:39:38.997Z,21.30
2022-10-07T11:40:51.008Z,21.40
2022-10-07T11:42:07.279Z,21.40
2022-10-07T11:43:30.270Z,21.50
2022-10-07T11:45:02.516Z,21.30
2022-10-07T11:46:28.215Z,21.20
2022-10-07T11:47:43.301Z,21.20
2022-10-07T11:49:15.576Z,21.10
2022-10-07T11:50:22.697Z,21.20
2022-10-07T11:51:58.653Z,21.40
2022-10-07T11:53:07.925Z,21.90
2022-10-07T11:54:16.241Z,21.90
2022-10-07T11:55:34.435Z,22.10
2022-10-07T11:56:44.369Z,22.30
2022-10-07T11:57:55.688Z,22.30
2022-10-07T11:59:02.972Z,22.40
2022-10-07T12:00:23.142Z,22.30
2022-10-07T12:01:30.589Z,22.20
2022-10-07T12:02:32.220Z,22.00
2022-10-07T12:03:34.895Z,22.10
2022-10-07T12:04:38.127Z,22.40
2022-10-07T12:05:39.739Z,22.50
2022-10-07T12:07:20.017Z,22.60
2022-10-07T12:08:29.629Z,22.80
2022-10-07T12:09:59.386Z,22.80
2022-10-07T12:11:32.970Z,22.80
2022-10-07T12:12:44.897Z,22.80
2022-10-07T12:13:51.994Z,22.70
2022-10-07T12:15:03.664Z,22.40
2022-10-07T12:16:23.596Z,22.60
2022-10-07T12:17:30.080Z,22.50
2022-10-07T12:18:31.765Z,22.80
2022-10-07T12:19:33.431Z,22.80
2022-10-07T12:20:35.018Z,22.90
2022-10-07T12:21:59.364Z,22.90
2022-10-07T12:23:19.557Z,23.10
2022-10-07T12:24:21.188Z,23.10
2022-10-07T12:25:32.027Z,23.30
2022-10-07T12:26:33.580Z,23.30
2022-10-07T12:27:36.302Z,23.50
2022-10-07T12:28:45.924Z,23.60
2022-10-07T12:29:53.302Z,23.80
2022-10-07T12:31:03.312Z,23.60
2022-10-07T12:32:43.434Z,23.90
2022-10-07T12:33:45.255Z,24.20
2022-10-07T12:34:47.369Z,24.20
2022-10-07T12:35:54.292Z,24.10
2022-10-07T12:37:35.167Z,24.20
2022-10-07T12:38:36.860Z,24.80
2022-10-07T12:39:38.919Z,25.00
2022-10-07T12:40:42.037Z,25.00
2022-10-07T12:41:46.546Z,25.40
2022-10-07T12:42:54.402Z,25.50
2022-10-07T12:43:59.355Z,25.40
2022-10-07T12:45:01.313Z,25.40
2022-10-07T12:46:11.229Z,25.20
2022-10-07T12:47:24.833Z,25.00
2022-10-07T12:48:33.589Z,24.80
2022-10-07T12:49:41.093Z,24.80
2022-10-07T12:50:44.247Z,24.70
2022-10-07T12:51:46.166Z,24.80
2022-10-07T12:52:58.714Z,25.10
2022-10-07T12:54:01.389Z,25.40
2022-10-07T12:55:14.482Z,25.10
2022-10-07T12:56:23.612Z,25.10
2022-10-07T12:57:34.417Z,25.10
2022-10-07T12:59:16.270Z,25.10
2022-10-07T13:00:24.522Z,25.00
2022-10-07T13:01:43.854Z,24.90
2022-10-07T13:03:13.577Z,24.60
2022-10-07T13:04:33.838Z,24.40
2022-10-07T13:06:08.621Z,24.30
2022-10-07T13:07:53.528Z,24.20
2022-10-07T13:09:16.280Z,24.80
2022-10-07T13:10:46.841Z,25.00
2022-10-07T13:12:03.153Z,25.30
2022-10-07T13:13:25.277Z,24.80
2022-10-07T13:14:35.163Z,25.10
2022-10-07T13:15:51.516Z,25.50
2022-10-07T13:17:17.821Z,25.40
2022-10-07T13:18:37.893Z,25.50
2022-10-07T13:19:59.215Z,25.60
2022-10-07T13:21:19.822Z,26.00
2022-10-07T13:22:23.011Z,26.30
2022-10-07T13:23:27.648Z,26.40
2022-10-07T13:24:29.792Z,26.60
2022-10-07T13:25:31.619Z,26.70
2022-10-07T13:26:33.477Z,26.40
2022-10-07T13:27:37.789Z,26.10
2022-10-07T13:28:49.591Z,25.50
2022-10-07T13:29:51.312Z,25.50
2022-10-07T13:30:53.654Z,25.60
2022-10-07T13:32:17.919Z,25.80
2022-10-07T13:33:31.915Z,25.70
2022-10-07T13:34:34.388Z,25.80
2022-10-07T13:35:39.773Z,26.00
2022-10-07T13:36:45.129Z,26.10
2022-10-07T13:37:48.078Z,26.20
2022-10-07T13:39:10.022Z,25.80
2022-10-07T13:40:24.468Z,25.50
2022-10-07T13:41:28.815Z,25.10
2022-10-07T13:42:30.847Z,25.30
2022-10-07T13:43:35.773Z,25.40
2022-10-07T13:44:42.040Z,25.70
2022-10-07T13:45:45.849Z,25.90
2022-10-07T13:47:01.244Z,26.00
2022-10-07T13:48:03.008Z,26.00
2022-10-07T13:49:05.239Z,26.10
2022-10-07T13:50:09.945Z,26.10
2022-10-07T13:51:40.927Z,26.10
2022-10-07T13:52:46.992Z,26.40
2022-10-07T13:53:55.242Z,26.60
2022-10-07T13:54:56.851Z,26.30
2022-10-07T13:56:17.731Z,26.50
2022-10-07T13:57:21.336Z,26.50
2022-10-07T13:58:23.276Z,26.40
2022-10-07T13:59:25.480Z,26.40
2022-10-07T14:00:28.767Z,26.30
2022-10-07T14:01:35.715Z,26.10
2022-10-07T14:02:40.376Z,26.30
2022-10-07T14:04:01.932Z,26.50
2022-10-07T14:05:17.536Z,26.70
2022-10-07T14:06:46.039Z,26.30
2022-10-07T14:07:53.556Z,26.40
2022-10-07T14:08:55.166Z,26.60
2022-10-07T14:09:59.925Z,26.70
2022-10-07T14:11:18.957Z,26.70
2022-10-07T14:12:25.800Z,26.70
2022-10-07T14:13:30.890Z,26.40
2022-10-07T14:14:38.377Z,25.70
2022-10-07T14:15:49.817Z,25.70
2022-10-07T14:16:59.540Z,26.00
2022-10-07T14:18:10.740Z,25.90
2022-10-07T14:19:21.054Z,25.90
2022-10-07T14:20:32.743Z,25.60
2022-10-07T14:21:41.121Z,25.80
2022-10-07T14:22:46.524Z,25.90
2022-10-07T14:23:48.582Z,25.70
2022-10-07T14:24:56.781Z,25.50
2022-10-07T14:26:00.619Z,25.40
2022-10-07T14:27:02.283Z,25.50
2022-10-07T14:28:18.936Z,25.60
2022-10-07T14:29:29.718Z,26.10
2022-10-07T14:30:57.025Z,26.40
2022-10-07T14:32:32.129Z,26.40
2022-10-07T14:34:18.642Z,26.70
2022-10-07T14:35:23.887Z,25.90
2022-10-07T14:36:25.912Z,26.00
2022-10-07T14:37:31.679Z,25.80
2022-10-07T14:38:33.628Z,25.90
2022-10-07T14:39:37.061Z,26.10
2022-10-07T14:40:38.711Z,26.00
2022-10-07T14:41:40.328Z,26.00
2022-10-07T14:42:42.889Z,26.00
2022-10-07T14:43:47.538Z,25.90
2022-10-07T14:44:49.978Z,25.50